Time;durP1;ratioP1;P1;durP2;ratioP2;P2;SDS_P1;SDS_P2;PMS_P1;PMS_P2;Temp;Humidity;BMP_temperature;BMP_pressure;BME280_temperature;BME280_humidity;BME280_pressure;Samples;Min_cycle;Max_cycle;Signal;HPM_P1;HPM_P2
2022/08/14 00:00:20;;;;;;;14.02;5.10;;;20.60;99.90;;;;;;4966862;28;20047;-85
2022/08/14 00:02:46;;;;;;;9.75;4.88;;;20.60;99.90;;;;;;4963660;28;20059;-85
2022/08/14 00:05:16;;;;;;;10.88;5.47;;;20.50;99.90;;;;;;4964146;28;20050;-85
2022/08/14 00:07:42;;;;;;;11.10;5.13;;;20.50;99.90;;;;;;4966660;28;20308;-85
2022/08/14 00:10:11;;;;;;;10.57;5.65;;;20.50;99.90;;;;;;4968522;28;20047;-85
2022/08/14 00:12:39;;;;;;;10.38;5.13;;;20.50;99.90;;;;;;4968774;28;20050;-86
2022/08/14 00:15:28;;;;;;;9.50;5.25;;;20.50;99.90;;;;;;4968451;28;20294;-85
2022/08/14 00:17:54;;;;;;;10.23;5.47;;;20.50;99.90;;;;;;4966903;28;20050;-86
2022/08/14 00:20:26;;;;;;;10.50;5.35;;;20.50;99.90;;;;;;4953907;28;20085;-85
2022/08/14 00:22:52;;;;;;;11.10;5.70;;;20.50;99.90;;;;;;4987828;28;20050;-85
2022/08/14 00:25:18;;;;;;;9.88;5.50;;;20.50;99.90;;;;;;4968841;28;20031;-86
2022/08/14 00:27:44;;;;;;;11.10;5.70;;;20.40;99.90;;;;;;4954225;28;20532;-85
2022/08/14 00:30:12;;;;;;;10.48;5.78;;;20.40;99.90;;;;;;4968794;28;20273;-85
2022/08/14 00:32:38;;;;;;;10.82;5.60;;;20.40;99.90;;;;;;4965054;28;20522;-85
2022/08/14 00:35:06;;;;;;;10.13;5.85;;;20.40;99.90;;;;;;4953358;28;20054;-85
2022/08/14 00:37:32;;;;;;;11.80;6.00;;;20.40;99.90;;;;;;4971272;28;20470;-85
2022/08/14 00:39:58;;;;;;;10.07;5.70;;;20.40;99.90;;;;;;4987576;28;20109;-85
2022/08/14 00:42:24;;;;;;;11.80;5.80;;;20.40;99.90;;;;;;4954863;28;20043;-85
2022/08/14 00:44:51;;;;;;;12.45;6.30;;;20.40;99.90;;;;;;4954176;28;21081;-85
2022/08/14 00:47:17;;;;;;;13.95;6.03;;;20.40;99.90;;;;;;4949076;28;20042;-86
2022/08/14 00:49:44;;;;;;;10.73;6.10;;;20.50;99.90;;;;;;4949762;28;20039;-86
2022/08/14 00:52:15;;;;;;;12.23;6.30;;;20.40;99.90;;;;;;4987651;28;20104;-86
2022/08/14 00:54:41;;;;;;;11.85;6.45;;;20.40;99.90;;;;;;4986540;28;20038;-86
2022/08/14 00:57:07;;;;;;;10.98;6.05;;;20.40;99.90;;;;;;4967151;28;20125;-85
2022/08/14 00:59:34;;;;;;;12.02;6.45;;;20.40;99.90;;;;;;4947399;28;20479;-85
2022/08/14 01:02:01;;;;;;;11.23;6.38;;;20.40;99.90;;;;;;4954451;28;20043;-85
2022/08/14 01:04:30;;;;;;;13.15;6.38;;;20.40;99.90;;;;;;4969565;28;20440;-85
2022/08/14 01:06:57;;;;;;;10.95;6.63;;;20.40;99.90;;;;;;4951902;28;20114;-85
2022/08/14 01:09:23;;;;;;;13.55;6.53;;;20.40;99.90;;;;;;4955063;28;20043;-85
2022/08/14 01:11:50;;;;;;;12.85;7.03;;;20.40;99.90;;;;;;4970023;28;20105;-85
2022/08/14 01:14:17;;;;;;;14.30;6.95;;;20.30;99.90;;;;;;4969920;28;20039;-86
2022/08/14 01:16:44;;;;;;;13.57;7.10;;;20.30;99.90;;;;;;4953671;28;20050;-86
2022/08/14 01:21:54;;;;;;;13.05;6.88;;;20.30;99.90;;;;;;4955880;28;20047;-86
2022/08/14 01:24:21;;;;;;;12.95;7.18;;;20.30;99.90;;;;;;4970283;28;20665;-86
2022/08/14 01:26:47;;;;;;;13.77;6.80;;;20.30;99.90;;;;;;4953318;28;20039;-86
2022/08/14 01:29:13;;;;;;;12.15;6.78;;;20.30;99.90;;;;;;4968749;28;20050;-85
2022/08/14 01:31:45;;;;;;;11.07;6.57;;;20.30;99.90;;;;;;4970216;28;20053;-85
2022/08/14 01:34:11;;;;;;;11.82;7.20;;;20.20;99.90;;;;;;4957699;28;20042;-85
2022/08/14 01:36:38;;;;;;;11.57;6.85;;;20.20;99.90;;;;;;4952521;28;20046;-85
2022/08/14 01:39:16;;;;;;;11.38;7.10;;;20.20;99.90;;;;;;4962295;28;20135;-86
2022/08/14 01:41:55;;;;;;;12.23;7.60;;;20.20;99.90;;;;;;4959201;28;20043;-86
2022/08/14 01:44:23;;;;;;;12.45;7.35;;;20.20;99.90;;;;;;4965338;28;20034;-85
2022/08/14 01:46:53;;;;;;;13.70;7.45;;;20.20;99.90;;;;;;4950046;28;20442;-86
2022/08/14 01:49:19;;;;;;;11.23;7.68;;;20.20;99.90;;;;;;4944487;28;20377;-86
2022/08/14 01:51:46;;;;;;;14.60;8.00;;;20.20;99.90;;;;;;4968348;28;20491;-86
2022/08/14 01:54:22;;;;;;;11.80;7.60;;;20.10;99.90;;;;;;4921928;28;20045;-86
2022/08/14 01:56:55;;;;;;;12.50;7.90;;;20.10;99.90;;;;;;4964117;28;20070;-85
2022/08/14 01:59:28;;;;;;;12.68;8.10;;;20.10;99.90;;;;;;4984969;28;20074;-86
2022/08/14 02:01:55;;;;;;;;;;;20.00;99.90;;;;;;4953600;28;20416;-86
2022/08/14 02:04:22;;;;;;;11.77;7.80;;;19.90;99.90;;;;;;4969472;28;20163;-86
2022/08/14 02:06:49;;;;;;;12.15;7.40;;;19.90;99.90;;;;;;4948548;28;20047;-86
2022/08/14 02:09:17;;;;;;;11.50;7.45;;;19.90;99.90;;;;;;4946763;28;20035;-86
2022/08/14 02:11:43;;;;;;;13.90;8.00;;;19.90;99.90;;;;;;4959021;28;20504;-86
2022/08/14 02:14:12;;;;;;;12.27;7.38;;;19.90;99.90;;;;;;4945753;28;20043;-86
2022/08/14 02:16:51;;;;;;;12.80;7.63;;;19.80;99.90;;;;;;4953154;28;20074;-85
2022/08/14 02:19:20;;;;;;;11.55;7.90;;;19.80;99.90;;;;;;4963945;28;20035;-86
2022/08/14 02:21:49;;;;;;;13.30;7.90;;;19.80;99.90;;;;;;4977811;28;20035;-85
2022/08/14 02:24:15;;;;;;;12.63;8.35;;;19.80;99.90;;;;;;4955675;28;20039;-86
2022/08/14 02:26:48;;;;;;;12.95;7.57;;;19.80;99.90;;;;;;4965927;28;20051;-86
2022/08/14 02:29:17;;;;;;;13.20;7.47;;;19.70;99.90;;;;;;4966342;28;20248;-86
2022/08/14 02:31:48;;;;;;;12.25;7.88;;;19.70;99.90;;;;;;4949087;28;20118;-86
2022/08/14 02:34:17;;;;;;;11.38;7.88;;;19.70;99.90;;;;;;4967531;28;20042;-86
2022/08/14 02:36:44;;;;;;;13.55;8.43;;;19.70;99.90;;;;;;4949780;28;20468;-85
2022/08/14 02:39:10;;;;;;;13.00;8.55;;;19.70;99.90;;;;;;4966583;28;20420;-85
2022/08/14 02:41:37;;;;;;;12.73;7.75;;;19.70;99.90;;;;;;4952505;28;20034;-85
2022/08/14 02:44:10;;;;;;;14.80;8.73;;;19.70;99.90;;;;;;4947967;28;20039;-86
2022/08/14 02:46:43;;;;;;;11.80;8.05;;;19.70;99.90;;;;;;4967450;28;20081;-86
2022/08/14 02:49:10;;;;;;;12.32;8.48;;;19.60;99.90;;;;;;4966764;28;20438;-86
2022/08/14 02:51:36;;;;;;;12.70;7.85;;;19.60;99.90;;;;;;4965806;28;20543;-86
2022/08/14 02:54:07;;;;;;;11.52;7.93;;;19.50;99.90;;;;;;4965708;28;20061;-86
2022/08/14 02:56:36;;;;;;;11.70;7.93;;;19.60;99.90;;;;;;4952302;28;20046;-86
2022/08/14 02:59:01;;;;;;;12.02;8.48;;;19.50;99.90;;;;;;4966857;28;20531;-86
2022/08/14 03:01:27;;;;;;;13.63;8.05;;;19.50;99.90;;;;;;4967532;28;20039;-86
2022/08/14 03:03:54;;;;;;;12.35;8.43;;;19.50;99.90;;;;;;4938086;28;20051;-86
2022/08/14 03:06:22;;;;;;;14.23;8.75;;;19.50;99.90;;;;;;4952862;28;20053;-86
2022/08/14 03:08:48;;;;;;;13.20;8.55;;;19.40;99.90;;;;;;4967467;28;20058;-86
2022/08/14 03:11:14;;;;;;;12.27;8.52;;;19.40;99.90;;;;;;4958672;28;20053;-86
2022/08/14 03:13:42;;;;;;;13.32;8.60;;;19.40;99.90;;;;;;4952255;28;20073;-86
2022/08/14 03:16:14;;;;;;;12.95;8.45;;;19.40;99.90;;;;;;4965087;28;20054;-85
2022/08/14 03:18:42;;;;;;;13.02;8.43;;;19.40;99.90;;;;;;4951400;28;20047;-86
2022/08/14 03:21:12;;;;;;;13.35;8.52;;;19.40;99.90;;;;;;4965277;28;20034;-85
2022/08/14 03:23:43;;;;;;;12.32;8.57;;;19.40;99.90;;;;;;4982727;28;20041;-86
2022/08/14 03:26:10;;;;;;;12.65;8.50;;;19.30;99.90;;;;;;4968488;28;20041;-86
2022/08/14 03:28:40;;;;;;;12.68;8.32;;;19.30;99.90;;;;;;4949801;28;20074;-86
2022/08/14 03:31:06;;;;;;;13.48;9.02;;;19.30;99.90;;;;;;4942775;29;20141;-86
2022/08/14 03:33:35;;;;;;;13.88;8.93;;;19.30;99.90;;;;;;4978473;28;20047;-86
2022/08/14 03:36:08;;;;;;;13.68;8.52;;;19.30;99.90;;;;;;4967513;28;20062;-86
2022/08/14 03:38:41;;;;;;;12.63;8.95;;;19.30;99.90;;;;;;4965879;28;20051;-86
2022/08/14 03:41:15;;;;;;;13.25;8.68;;;19.30;99.90;;;;;;4962485;28;20046;-86
2022/08/14 03:43:49;;;;;;;11.82;8.18;;;19.20;99.90;;;;;;4971671;28;20078;-86
2022/08/14 03:46:16;;;;;;;13.55;9.10;;;19.20;99.90;;;;;;4955941;28;20046;-86
2022/08/14 03:48:43;;;;;;;13.60;8.55;;;19.20;99.90;;;;;;4967608;28;20098;-86
2022/08/14 03:51:10;;;;;;;12.73;8.68;;;19.20;99.90;;;;;;4987036;28;20046;-85
2022/08/14 03:53:40;;;;;;;13.40;8.85;;;19.20;99.90;;;;;;4983795;28;20078;-86
2022/08/14 03:56:08;;;;;;;13.48;8.95;;;19.20;99.90;;;;;;4962019;28;20047;-86
2022/08/14 03:58:37;;;;;;;12.57;8.60;;;19.20;99.90;;;;;;4940243;28;20042;-86
2022/08/14 04:01:04;;;;;;;19.75;8.32;;;19.10;99.90;;;;;;4970855;28;20050;-86
2022/08/14 04:03:30;;;;;;;14.57;8.75;;;19.10;99.90;;;;;;4954722;28;20137;-86
2022/08/14 04:05:55;;;;;;;12.88;8.45;;;19.10;99.90;;;;;;4951917;28;20123;-86
2022/08/14 04:08:21;;;;;;;14.60;9.00;;;19.10;99.90;;;;;;4986388;28;20147;-86
2022/08/14 04:10:47;;;;;;;12.90;8.65;;;19.10;99.90;;;;;;4988362;28;20051;-86
2022/08/14 04:13:17;;;;;;;14.95;9.45;;;19.10;99.90;;;;;;4969905;28;20122;-86
2022/08/14 04:15:46;;;;;;;12.40;8.70;;;19.10;99.90;;;;;;4955495;28;20117;-86
2022/08/14 04:18:13;;;;;;;16.02;9.20;;;19.00;99.90;;;;;;4964813;28;20043;-86
2022/08/14 04:20:41;;;;;;;13.77;8.68;;;19.10;99.90;;;;;;4955706;28;20447;-86
2022/08/14 04:23:08;;;;;;;14.52;8.98;;;19.00;99.90;;;;;;4938073;28;20085;-86
2022/08/14 04:25:36;;;;;;;12.43;8.65;;;19.00;99.90;;;;;;4968268;28;20245;-86
2022/08/14 04:28:05;;;;;;;12.43;8.90;;;19.00;99.90;;;;;;4953051;28;20443;-86
2022/08/14 04:30:38;;;;;;;12.10;8.32;;;19.00;99.90;;;;;;4930957;28;20041;-86
2022/08/14 04:33:07;;;;;;;12.68;8.57;;;19.10;99.90;;;;;;4950152;28;20050;-86
2022/08/14 04:35:36;;;;;;;13.63;8.30;;;19.00;99.90;;;;;;4954602;28;20031;-86
2022/08/14 04:43:42;;;;;;;13.30;8.35;;;19.10;99.90;;;;;;4968812;28;20132;-86
2022/08/14 04:46:15;;;;;;;13.70;8.82;;;19.00;99.90;;;;;;4965306;28;20070;-86
2022/08/14 04:48:41;;;;;;;13.30;8.05;;;19.00;99.90;;;;;;4968158;28;20110;-85
2022/08/14 04:51:13;;;;;;;13.73;8.52;;;19.00;99.90;;;;;;4968048;28;21543;-86
2022/08/14 04:53:42;;;;;;;14.77;8.33;;;19.00;99.90;;;;;;4954339;28;20050;-86
2022/08/14 04:56:08;;;;;;;12.75;8.75;;;19.00;99.90;;;;;;4968860;28;20046;-85
2022/08/14 04:58:34;;;;;;;12.50;8.43;;;19.00;99.90;;;;;;4968319;28;20046;-85
2022/08/14 05:01:05;;;;;;;13.02;8.68;;;19.10;99.90;;;;;;4970570;28;20039;-85
2022/08/14 05:03:34;;;;;;;14.23;8.30;;;19.10;99.90;;;;;;4961515;28;20513;-85
2022/08/14 05:06:04;;;;;;;12.63;9.13;;;19.10;99.90;;;;;;4960411;28;20050;-85
2022/08/14 05:08:32;;;;;;;12.23;8.38;;;19.20;99.90;;;;;;4965391;28;20488;-86
2022/08/14 05:10:59;;;;;;;14.18;8.93;;;19.20;99.90;;;;;;4964296;28;20051;-86
2022/08/14 05:13:27;;;;;;;14.55;9.00;;;19.30;99.90;;;;;;4954358;28;20133;-86
2022/08/14 05:15:54;;;;;;;14.18;8.18;;;19.30;99.90;;;;;;4965333;28;20479;-85
2022/08/14 05:18:22;;;;;;;13.10;8.10;;;19.40;99.90;;;;;;4985298;28;20516;-85
2022/08/14 05:20:56;;;;;;;11.93;8.10;;;19.50;99.90;;;;;;4962886;28;20043;-86
2022/08/14 05:23:27;;;;;;;14.68;8.40;;;19.50;99.90;;;;;;4986495;28;20484;-86
2022/08/14 05:26:11;;;;;;;14.25;8.45;;;19.60;99.90;;;;;;4971069;28;20050;-85
2022/08/14 05:28:40;;;;;;;17.30;8.38;;;19.70;99.90;;;;;;4951631;28;20050;-85
2022/08/14 05:31:06;;;;;;;12.63;8.50;;;19.80;99.90;;;;;;4952782;28;20062;-85
2022/08/14 05:33:33;;;;;;;11.73;7.75;;;19.80;99.90;;;;;;4954863;28;20088;-85
2022/08/14 05:36:02;;;;;;;13.75;8.68;;;19.90;99.90;;;;;;4955309;28;20074;-85
2022/08/14 05:38:32;;;;;;;12.93;8.05;;;20.00;99.90;;;;;;4985036;28;20047;-85
2022/08/14 05:41:12;;;;;;;12.32;7.90;;;20.10;99.90;;;;;;4945349;28;20042;-86
2022/08/14 05:43:39;;;;;;;12.23;7.45;;;20.20;99.90;;;;;;4969297;28;20042;-85
2022/08/14 05:46:05;;;;;;;11.77;7.32;;;20.30;99.90;;;;;;4923464;28;20404;-85
2022/08/14 05:48:32;;;;;;;13.05;8.07;;;;;;;;;;4966279;28;20042;-85
2022/08/14 05:50:57;;;;;;;13.60;8.52;;;20.60;99.90;;;;;;4952513;28;20051;-85
2022/08/14 05:53:25;;;;;;;13.93;8.20;;;20.60;99.90;;;;;;4951773;28;20061;-85
2022/08/14 05:55:51;;;;;;;12.02;8.15;;;20.70;99.90;;;;;;4958397;28;20042;-85
2022/08/14 05:58:18;;;;;;;11.55;7.93;;;20.80;99.90;;;;;;4965151;28;20053;-84
2022/08/14 06:00:45;;;;;;;12.88;7.90;;;20.90;99.90;;;;;;4925233;28;20079;-85
2022/08/14 06:03:13;;;;;;;12.00;8.38;;;21.00;99.90;;;;;;4953561;28;20539;-85
2022/08/14 06:05:40;;;;;;;13.93;8.50;;;21.10;99.90;;;;;;4968517;28;20152;-85
2022/08/14 06:08:18;;;;;;;12.80;7.65;;;21.10;99.90;;;;;;4958346;28;20121;-84
2022/08/14 06:10:44;;;;;;;14.88;8.18;;;21.20;99.90;;;;;;4982804;28;20047;-85
2022/08/14 06:13:10;;;;;;;13.30;8.23;;;21.30;99.90;;;;;;4968203;28;20047;-85
2022/08/14 06:15:35;;;;;;;12.85;8.40;;;21.40;99.90;;;;;;4968959;28;20524;-85
2022/08/14 06:18:01;;;;;;;15.07;8.18;;;21.50;99.90;;;;;;4952963;28;20035;-84
2022/08/14 06:20:28;;;;;;;14.70;7.93;;;21.70;99.90;;;;;;4945364;28;20039;-85
2022/08/14 06:22:54;;;;;;;13.25;8.18;;;21.80;99.90;;;;;;4969983;28;20337;-85
2022/08/14 06:25:20;;;;;;;12.57;7.57;;;21.80;99.90;;;;;;4970069;28;20515;-85
2022/08/14 06:27:47;;;;;;;13.57;7.68;;;21.90;99.90;;;;;;4954077;28;20039;-85
2022/08/14 06:30:17;;;;;;;13.48;7.72;;;22.10;99.90;;;;;;4968340;28;20038;-85
2022/08/14 06:32:43;;;;;;;12.70;7.50;;;22.20;99.90;;;;;;4955412;28;20058;-84
2022/08/14 06:35:11;;;;;;;12.27;7.70;;;22.30;99.90;;;;;;4970123;28;20464;-85
2022/08/14 06:37:42;;;;;;;14.68;7.80;;;22.40;99.90;;;;;;4953573;28;20046;-85
2022/08/14 06:40:11;;;;;;;13.77;8.47;;;22.60;99.90;;;;;;4952358;28;20043;-85
2022/08/14 06:42:37;;;;;;;11.98;8.25;;;22.70;99.90;;;;;;4953328;28;20121;-86
2022/08/14 06:45:04;;;;;;;12.55;8.05;;;22.70;99.90;;;;;;4969596;28;20110;-85
2022/08/14 06:47:34;;;;;;;14.05;8.25;;;22.80;99.90;;;;;;4965059;28;20045;-84
2022/08/14 06:49:59;;;;;;;13.43;8.07;;;22.90;99.90;;;;;;4967934;28;20043;-85
2022/08/14 06:52:25;;;;;;;13.30;8.10;;;23.00;99.90;;;;;;4941913;28;20038;-85
2022/08/14 06:54:51;;;;;;;14.00;8.40;;;23.10;99.90;;;;;;4961837;28;20038;-85
2022/08/14 06:57:16;;;;;;;13.93;7.97;;;23.20;99.90;;;;;;4965103;28;20117;-85
2022/08/14 06:59:42;;;;;;;12.85;7.32;;;23.30;99.90;;;;;;4984739;28;20089;-85
2022/08/14 07:07:38;;;;;;;12.07;6.53;;;23.60;99.90;;;;;;4970385;28;20074;-85
2022/08/14 07:10:04;;;;;;;12.45;6.57;;;23.70;99.90;;;;;;4969304;28;20034;-86
2022/08/14 07:12:30;;;;;;;12.95;6.00;;;23.80;99.90;;;;;;4923231;28;20046;-85
2022/08/14 07:14:56;;;;;;;10.85;6.63;;;23.90;99.90;;;;;;4949977;28;20037;-85
2022/08/14 07:17:22;;;;;;;12.20;6.00;;;24.00;99.90;;;;;;4964172;28;20043;-86
2022/08/14 07:19:47;;;;;;;10.43;5.93;;;24.10;99.90;;;;;;4930621;28;20050;-85
2022/08/14 07:22:13;;;;;;;10.00;5.90;;;24.30;99.90;;;;;;4983514;28;20055;-86
2022/08/14 07:24:38;;;;;;;12.15;6.40;;;24.30;99.90;;;;;;4941433;28;20491;-85
2022/08/14 07:27:04;;;;;;;11.10;6.22;;;24.30;99.90;;;;;;4939529;28;20070;-85
2022/08/14 07:29:30;;;;;;;11.57;6.50;;;24.40;99.90;;;;;;4950294;28;20041;-85
2022/08/14 07:31:56;;;;;;;10.95;5.90;;;24.50;99.90;;;;;;4935593;28;20492;-85
2022/08/14 07:34:22;;;;;;;12.02;6.15;;;25.00;99.90;;;;;;4948018;28;20176;-85
2022/08/14 07:36:48;;;;;;;10.02;5.97;;;24.70;99.90;;;;;;4966186;28;20218;-85
2022/08/14 07:39:13;;;;;;;9.43;5.85;;;24.80;99.90;;;;;;4952787;28;20101;-85
2022/08/14 07:41:40;;;;;;;11.85;6.20;;;24.90;99.90;;;;;;4951114;28;20070;-85
2022/08/14 07:44:06;;;;;;;10.93;5.68;;;24.90;99.90;;;;;;4950162;28;20039;-85
2022/08/14 07:46:32;;;;;;;9.80;5.78;;;25.00;99.90;;;;;;4946227;28;20037;-85
2022/08/14 07:48:58;;;;;;;10.80;5.47;;;25.10;99.90;;;;;;4951600;28;20531;-85
2022/08/14 07:51:23;;;;;;;11.68;5.72;;;25.20;99.90;;;;;;4967188;28;20050;-85
2022/08/14 07:53:50;;;;;;;11.20;6.03;;;25.30;99.90;;;;;;4952465;28;20413;-86
2022/08/14 07:56:16;;;;;;;11.32;5.75;;;25.40;99.90;;;;;;4944888;28;20055;-86
2022/08/14 07:58:43;;;;;;;10.63;6.05;;;25.40;99.90;;;;;;4966983;28;20047;-84
2022/08/14 08:01:10;;;;;;;11.35;5.80;;;25.50;99.90;;;;;;4968678;28;20068;-85
2022/08/14 08:03:39;;;;;;;10.95;5.72;;;25.60;99.90;;;;;;4952489;28;20520;-85
2022/08/14 08:06:05;;;;;;;12.45;5.72;;;25.60;99.90;;;;;;4947099;28;20079;-84
2022/08/14 08:08:31;;;;;;;9.23;5.20;;;25.70;99.90;;;;;;4951392;28;20278;-85
2022/08/14 08:10:59;;;;;;;10.30;5.88;;;25.80;99.90;;;;;;4968906;28;20043;-85
2022/08/14 08:13:26;;;;;;;11.82;5.45;;;25.60;99.90;;;;;;4952687;28;20053;-85
2022/08/14 08:15:56;;;;;;;10.88;5.50;;;26.00;99.90;;;;;;4950481;28;20057;-84
2022/08/14 08:18:22;;;;;;;13.15;5.75;;;26.10;99.90;;;;;;4952314;28;20118;-85
2022/08/14 08:20:51;;;;;;;10.18;5.40;;;26.20;99.90;;;;;;4996252;28;20046;-85
2022/08/14 08:23:19;;;;;;;10.07;5.20;;;26.20;99.90;;;;;;4985868;28;20057;-86
2022/08/14 08:25:47;;;;;;;9.65;4.65;;;26.30;99.90;;;;;;4949605;28;20416;-85
2022/08/14 08:28:22;;;;;;;9.60;4.78;;;26.40;99.90;;;;;;4967173;28;20042;-87
2022/08/14 08:30:50;;;;;;;9.45;5.10;;;26.40;99.90;;;;;;4953919;28;20054;-85
2022/08/14 08:33:18;;;;;;;10.02;5.07;;;26.60;99.90;;;;;;4971683;28;20680;-86
2022/08/14 08:35:44;;;;;;;8.32;4.82;;;26.60;99.90;;;;;;4954704;28;20570;-86
2022/08/14 08:38:13;;;;;;;9.02;4.80;;;26.70;99.90;;;;;;4969677;28;20046;-86
2022/08/14 08:40:45;;;;;;;10.77;5.25;;;26.80;99.90;;;;;;4971403;28;20275;-86
2022/08/14 08:43:22;;;;;;;10.43;5.00;;;26.90;99.90;;;;;;4968648;28;20079;-86
2022/08/14 08:46:03;;;;;;;9.20;4.93;;;26.90;99.90;;;;;;4971464;28;20133;-86
2022/08/14 08:48:41;;;;;;;8.80;4.53;;;27.00;99.90;;;;;;4994647;28;20031;-87
2022/08/14 08:51:08;;;;;;;9.02;5.07;;;27.00;99.90;;;;;;4958617;28;20077;-86
2022/08/14 08:53:35;;;;;;;11.43;5.38;;;27.00;99.90;;;;;;4951637;28;20389;-86
2022/08/14 08:56:02;;;;;;;10.07;5.05;;;27.00;99.90;;;;;;4966064;28;20078;-86
2022/08/14 08:58:29;;;;;;;10.13;4.75;;;27.10;99.90;;;;;;4969330;28;20042;-86
2022/08/14 09:00:57;;;;;;;11.18;5.13;;;27.00;99.90;;;;;;4954303;28;20051;-84
2022/08/14 09:03:26;;;;;;;10.05;5.10;;;27.10;99.90;;;;;;4970776;28;20232;-86
2022/08/14 09:06:00;;;;;;;11.40;4.85;;;27.20;99.90;;;;;;4954356;28;20035;-85
2022/08/14 09:08:29;;;;;;;9.32;4.78;;;27.20;99.90;;;;;;4960971;28;20159;-86
2022/08/14 09:10:58;;;;;;;10.35;4.72;;;27.30;99.90;;;;;;4972469;28;20053;-85
2022/08/14 09:13:25;;;;;;;12.43;5.03;;;27.40;99.90;;;;;;4966761;28;20526;-86
2022/08/14 09:15:52;;;;;;;10.93;4.90;;;27.40;99.90;;;;;;4962988;28;20521;-85
2022/08/14 09:18:20;;;;;;;8.82;4.60;;;27.40;99.90;;;;;;4965295;28;20101;-87
2022/08/14 09:20:51;;;;;;;10.65;4.50;;;27.40;99.90;;;;;;4943752;28;20035;-85
2022/08/14 09:23:17;;;;;;;10.07;4.70;;;29.00;99.90;;;;;;4964131;28;20097;-86
2022/08/14 09:25:47;;;;;;;9.20;4.88;;;27.60;99.90;;;;;;4974938;28;20042;-86
2022/08/14 09:28:17;;;;;;;10.60;5.00;;;27.70;99.90;;;;;;4965132;28;20066;-87
2022/08/14 09:30:58;;;;;;;9.25;4.85;;;27.70;99.90;;;;;;4961825;28;20055;-87
2022/08/14 09:33:49;;;;;;;10.43;4.82;;;27.80;99.90;;;;;;4979271;28;20035;-86
2022/08/14 09:36:38;;;;;;;11.27;5.28;;;27.80;99.90;;;;;;4963620;28;20034;-84
2022/08/14 09:39:08;;;;;;;9.13;4.75;;;;;;;;;;4947523;28;20424;-85
2022/08/14 09:42:03;;;;;;;9.88;4.68;;;27.80;99.90;;;;;;4942395;28;20504;-86
2022/08/14 09:44:57;;;;;;;9.15;4.63;;;27.90;99.90;;;;;;4950854;28;20066;-86
2022/08/14 09:47:42;;;;;;;9.60;4.70;;;27.90;99.90;;;;;;4979370;28;20042;-86
2022/08/14 09:50:23;;;;;;;10.35;4.90;;;28.00;99.90;;;;;;4948042;28;20596;-85
2022/08/14 09:53:02;;;;;;;11.13;4.68;;;28.00;99.90;;;;;;4964706;28;20097;-85
2022/08/14 09:55:34;;;;;;;8.80;4.97;;;28.00;99.90;;;;;;4970119;28;20075;-86
2022/08/14 09:58:40;;;;;;;9.63;5.32;;;28.10;99.90;;;;;;4963855;28;20045;-86
2022/08/14 10:01:08;;;;;;;8.82;4.88;;;28.10;99.90;;;;;;4978519;28;20431;-86
2022/08/14 10:03:36;;;;;;;10.60;5.18;;;28.00;99.90;;;;;;4951276;28;20057;-83
2022/08/14 10:06:11;;;;;;;9.68;4.85;;;28.00;99.90;;;;;;4963967;28;20129;-84
2022/08/14 10:08:50;;;;;;;10.10;4.63;;;28.10;99.90;;;;;;4964660;28;20198;-86
2022/08/14 10:11:23;;;;;;;8.40;4.57;;;28.20;99.90;;;;;;4947544;28;20077;-85
2022/08/14 10:13:53;;;;;;;8.27;4.20;;;28.30;99.90;;;;;;4963590;28;20134;-86
2022/08/14 10:16:27;;;;;;;9.15;4.00;;;28.40;99.90;;;;;;4964707;28;20062;-86
2022/08/14 10:19:07;;;;;;;10.35;4.53;;;28.40;99.90;;;;;;4967407;28;20131;-86
2022/08/14 10:21:35;;;;;;;8.68;4.60;;;28.50;99.90;;;;;;4966448;28;20045;-87
2022/08/14 10:24:01;;;;;;;9.43;4.80;;;28.50;99.90;;;;;;4967151;28;20037;-85
2022/08/14 10:26:30;;;;;;;8.98;4.32;;;28.40;99.90;;;;;;4982267;28;20042;-84
2022/08/14 10:29:08;;;;;;;10.60;4.32;;;28.40;99.90;;;;;;4968589;28;20043;-84
2022/08/14 10:31:34;;;;;;;9.10;4.68;;;28.50;99.90;;;;;;4968405;28;20038;-84
2022/08/14 10:34:26;;;;;;;8.80;4.32;;;28.50;99.90;;;;;;4959311;28;20057;-84
2022/08/14 10:37:06;;;;;;;10.13;4.35;;;28.50;99.90;;;;;;4954830;28;20051;-83
2022/08/14 10:39:34;;;;;;;8.45;4.13;;;28.70;99.90;;;;;;4968506;28;21037;-84
2022/08/14 10:42:20;;;;;;;9.32;4.20;;;28.60;99.90;;;;;;4967376;28;20047;-84
2022/08/14 10:44:48;;;;;;;8.55;3.95;;;28.80;99.90;;;;;;4948827;28;20416;-83
2022/08/14 10:47:17;;;;;;;9.35;4.00;;;28.90;99.90;;;;;;4936029;28;20170;-84
2022/08/14 10:49:55;;;;;;;7.65;3.83;;;29.00;99.90;;;;;;4950578;28;20046;-85
2022/08/14 10:52:28;;;;;;;8.10;4.13;;;29.10;99.90;;;;;;4966123;28;20111;-84
2022/08/14 10:55:12;;;;;;;8.57;4.13;;;29.10;99.90;;;;;;4966436;28;20117;-84
2022/08/14 10:57:53;;;;;;;9.07;4.10;;;29.10;99.90;;;;;;4968744;28;20105;-84
2022/08/14 11:00:25;;;;;;;9.15;4.80;;;29.10;99.90;;;;;;4954760;28;20070;-84
2022/08/14 11:03:12;;;;;;;10.05;4.63;;;29.90;99.90;;;;;;4966793;28;20058;-83
2022/08/14 11:05:49;;;;;;;8.90;4.38;;;29.30;99.90;;;;;;4970798;28;20452;-83
2022/08/14 11:08:18;;;;;;;8.18;4.20;;;29.30;99.90;;;;;;4982749;28;20053;-83
2022/08/14 11:11:04;;;;;;;10.00;4.30;;;29.40;99.90;;;;;;4970103;28;20046;-83
2022/08/14 11:13:30;;;;;;;8.15;4.03;;;29.50;99.90;;;;;;4943747;28;20462;-83
2022/08/14 11:15:59;;;;;;;8.27;4.10;;;29.40;99.90;;;;;;4950856;28;20043;-83
2022/08/14 11:18:26;;;;;;;10.15;4.88;;;29.60;99.90;;;;;;4955663;28;20116;-84
2022/08/14 11:20:54;;;;;;;8.60;4.25;;;29.60;99.90;;;;;;4968788;28;20081;-82
2022/08/14 11:23:25;;;;;;;8.63;4.80;;;29.70;99.90;;;;;;4968958;28;20142;-84
2022/08/14 11:25:51;;;;;;;10.00;4.55;;;29.40;99.90;;;;;;4949249;28;20049;-83
2022/08/14 11:28:24;;;;;;;9.90;4.70;;;29.70;99.90;;;;;;4967735;28;20038;-85
2022/08/14 11:30:51;;;;;;;9.00;4.18;;;29.80;99.90;;;;;;4952355;28;20055;-83
2022/08/14 11:33:28;;;;;;;9.38;4.65;;;29.80;99.90;;;;;;4967977;28;20038;-83
2022/08/14 11:35:53;;;;;;;10.70;4.50;;;29.70;99.90;;;;;;4942741;29;20506;-80
2022/08/14 11:38:20;;;;;;;9.43;4.75;;;29.70;99.90;;;;;;4960467;28;20047;-84
2022/08/14 11:40:46;;;;;;;9.27;4.45;;;29.80;99.90;;;;;;4963711;28;20039;-84
2022/08/14 11:43:12;;;;;;;9.15;4.68;;;29.80;99.90;;;;;;4946975;28;20042;-83
2022/08/14 11:45:39;;;;;;;9.23;4.28;;;29.60;99.90;;;;;;4943139;28;20114;-84
2022/08/14 11:48:24;;;;;;;9.48;4.88;;;29.60;99.90;;;;;;4966088;28;20039;-84
2022/08/14 11:50:55;;;;;;;10.70;4.53;;;29.70;99.90;;;;;;4963878;28;20040;-83
2022/08/14 11:53:29;;;;;;;9.90;4.75;;;30.00;99.90;;;;;;4946209;28;20039;-85
2022/08/14 11:56:04;;;;;;;9.85;4.82;;;30.10;99.90;;;;;;4967395;28;20057;-85
2022/08/14 11:58:33;;;;;;;9.45;5.05;;;30.20;99.90;;;;;;4958381;28;20058;-84
2022/08/14 12:01:01;;;;;;;11.18;4.60;;;30.10;99.90;;;;;;4960027;28;20567;-84
2022/08/14 12:03:40;;;;;;;9.38;4.30;;;30.10;99.90;;;;;;4957002;28;20097;-84
2022/08/14 12:06:17;;;;;;;9.57;4.72;;;30.20;99.90;;;;;;4977510;28;20043;-82
2022/08/14 12:08:45;;;;;;;9.70;4.70;;;30.20;99.90;;;;;;4946488;28;20697;-83
2022/08/14 12:11:13;;;;;;;8.73;4.95;;;29.90;99.90;;;;;;4963615;28;20035;-83
2022/08/14 12:13:41;;;;;;;9.50;4.70;;;29.70;99.90;;;;;;4978587;28;20066;-82
2022/08/14 12:16:09;;;;;;;9.85;4.60;;;29.60;99.90;;;;;;4961415;28;20046;-83
2022/08/14 12:18:36;;;;;;;8.80;4.38;;;29.60;99.90;;;;;;4983748;28;20043;-83
2022/08/14 12:21:18;;;;;;;9.25;4.68;;;29.70;99.90;;;;;;4969438;28;20491;-83
2022/08/14 12:23:58;;;;;;;9.80;4.55;;;29.80;99.90;;;;;;4971891;28;20050;-83
2022/08/14 12:26:24;;;;;;;9.23;5.03;;;29.90;99.90;;;;;;4972169;28;20034;-84
2022/08/14 12:28:52;;;;;;;9.48;4.70;;;30.10;99.90;;;;;;4955505;28;20487;-83
2022/08/14 12:31:20;;;;;;;8.80;4.78;;;30.20;99.90;;;;;;4986452;28;20043;-83
2022/08/14 12:34:16;;;;;;;11.88;4.60;;;30.30;99.90;;;;;;4972250;28;20086;-83
2022/08/14 12:36:42;;;;;;;10.65;4.97;;;30.20;99.90;;;;;;4959780;28;20062;-83
2022/08/14 12:39:22;;;;;;;9.68;4.50;;;30.20;99.90;;;;;;4988033;28;20035;-82
2022/08/14 12:41:55;;;;;;;9.80;5.03;;;30.40;99.90;;;;;;4970061;28;20425;-83
2022/08/14 12:44:38;;;;;;;11.45;4.75;;;30.50;99.90;;;;;;4960778;28;20090;-83
2022/08/14 12:47:12;;;;;;;9.60;4.75;;;30.40;99.90;;;;;;4971691;28;20046;-82
2022/08/14 12:49:51;;;;;;;9.65;4.97;;;30.40;99.90;;;;;;4971782;28;20117;-82
2022/08/14 12:52:30;;;;;;;10.52;4.90;;;30.30;99.90;;;;;;4969516;28;20058;-82
2022/08/14 12:55:00;;;;;;;10.27;4.93;;;30.10;99.90;;;;;;4971237;28;20097;-82
2022/08/14 12:57:39;;;;;;;9.73;4.43;;;30.10;99.90;;;;;;4971625;28;20113;-83
2022/08/14 13:00:11;;;;;;;9.98;4.70;;;30.30;99.90;;;;;;4971376;28;20061;-82
2022/08/14 13:02:39;;;;;;;10.60;4.97;;;30.30;99.90;;;;;;4969220;28;20054;-82
2022/08/14 13:05:08;;;;;;;9.13;4.70;;;30.20;99.90;;;;;;4971327;28;20101;-83
2022/08/14 13:07:38;;;;;;;9.35;4.75;;;30.20;99.90;;;;;;4955052;28;20387;-84